sensor_id;sensor_type;location;lat;lon;timestamp;P1;durP1;ratioP1;P2;durP2;ratioP2
53753;SDS011;39667;52.274;20.964;2022-09-17T00:01:09;5.30;;;2.40;;
53753;SDS011;39667;52.274;20.964;2022-09-17T00:03:40;3.10;;;2.30;;
53753;SDS011;39667;52.274;20.964;2022-09-17T00:06:08;2.90;;;2.30;;
53753;SDS011;39667;52.274;20.964;2022-09-17T00:08:38;2.70;;;2.00;;
53753;SDS011;39667;52.274;20.964;2022-09-17T00:11:12;3.80;;;2.30;;
53753;SDS011;39667;52.274;20.964;2022-09-17T00:13:41;2.70;;;2.20;;
53753;SDS011;39667;52.274;20.964;2022-09-17T00:16:09;3.20;;;1.90;;
53753;SDS011;39667;52.274;20.964;2022-09-17T00:18:37;2.40;;;2.00;;
53753;SDS011;39667;52.274;20.964;2022-09-17T00:21:14;5.00;;;2.40;;
53753;SDS011;39667;52.274;20.964;2022-09-17T00:23:43;2.40;;;2.00;;
53753;SDS011;39667;52.274;20.964;2022-09-17T00:26:10;3.90;;;2.20;;
53753;SDS011;39667;52.274;20.964;2022-09-17T00:28:37;3.10;;;1.90;;
53753;SDS011;39667;52.274;20.964;2022-09-17T00:31:08;3.10;;;2.10;;
53753;SDS011;39667;52.274;20.964;2022-09-17T00:33:35;4.00;;;1.90;;
53753;SDS011;39667;52.274;20.964;2022-09-17T00:36:02;2.90;;;1.90;;
53753;SDS011;39667;52.274;20.964;2022-09-17T00:38:31;4.30;;;1.90;;
53753;SDS011;39667;52.274;20.964;2022-09-17T00:40:58;3.90;;;1.80;;
53753;SDS011;39667;52.274;20.964;2022-09-17T00:43:43;4.20;;;2.40;;
53753;SDS011;39667;52.274;20.964;2022-09-17T00:49:11;3.80;;;2.20;;
53753;SDS011;39667;52.274;20.964;2022-09-17T00:54:38;3.10;;;1.60;;
53753;SDS011;39667;52.274;20.964;2022-09-17T00:57:08;2.90;;;2.20;;
53753;SDS011;39667;52.274;20.964;2022-09-17T00:59:36;3.00;;;2.30;;
53753;SDS011;39667;52.274;20.964;2022-09-17T01:02:03;3.10;;;2.10;;
53753;SDS011;39667;52.274;20.964;2022-09-17T01:04:30;2.50;;;1.70;;
53753;SDS011;39667;52.274;20.964;2022-09-17T01:09:56;3.90;;;2.70;;
53753;SDS011;39667;52.274;20.964;2022-09-17T01:29:42;2.90;;;2.00;;
53753;SDS011;39667;52.274;20.964;2022-09-17T01:35:08;2.70;;;1.90;;
53753;SDS011;39667;52.274;20.964;2022-09-17T01:43:18;2.60;;;1.70;;
53753;SDS011;39667;52.274;20.964;2022-09-17T01:45:56;3.60;;;1.70;;
53753;SDS011;39667;52.274;20.964;2022-09-17T01:48:39;2.20;;;1.70;;
53753;SDS011;39667;52.274;20.964;2022-09-17T01:51:11;5.10;;;1.90;;
53753;SDS011;39667;52.274;20.964;2022-09-17T01:53:51;3.00;;;1.60;;
53753;SDS011;39667;52.274;20.964;2022-09-17T01:56:20;2.30;;;1.80;;
53753;SDS011;39667;52.274;20.964;2022-09-17T01:58:52;3.10;;;1.70;;
53753;SDS011;39667;52.274;20.964;2022-09-17T02:01:26;1.60;;;1.50;;
53753;SDS011;39667;52.274;20.964;2022-09-17T02:04:18;4.60;;;2.00;;
53753;SDS011;39667;52.274;20.964;2022-09-17T02:06:52;1.50;;;1.40;;
53753;SDS011;39667;52.274;20.964;2022-09-17T02:09:27;3.80;;;1.70;;
53753;SDS011;39667;52.274;20.964;2022-09-17T02:12:02;3.30;;;1.90;;
53753;SDS011;39667;52.274;20.964;2022-09-17T02:14:41;4.00;;;1.90;;
53753;SDS011;39667;52.274;20.964;2022-09-17T02:17:21;3.40;;;1.60;;
53753;SDS011;39667;52.274;20.964;2022-09-17T02:19:59;2.80;;;1.50;;
53753;SDS011;39667;52.274;20.964;2022-09-17T02:22:29;3.00;;;1.80;;
53753;SDS011;39667;52.274;20.964;2022-09-17T02:25:07;2.40;;;1.70;;
53753;SDS011;39667;52.274;20.964;2022-09-17T02:27:38;4.60;;;1.70;;
53753;SDS011;39667;52.274;20.964;2022-09-17T02:30:14;3.50;;;1.70;;
53753;SDS011;39667;52.274;20.964;2022-09-17T02:32:41;2.40;;;1.50;;
53753;SDS011;39667;52.274;20.964;2022-09-17T02:35:09;3.00;;;1.30;;
53753;SDS011;39667;52.274;20.964;2022-09-17T02:37:40;5.20;;;2.10;;
53753;SDS011;39667;52.274;20.964;2022-09-17T02:40:08;3.30;;;1.70;;
53753;SDS011;39667;52.274;20.964;2022-09-17T02:51:07;2.30;;;1.40;;
53753;SDS011;39667;52.274;20.964;2022-09-17T02:53:48;3.20;;;1.60;;
53753;SDS011;39667;52.274;20.964;2022-09-17T02:59:31;4.40;;;1.70;;
53753;SDS011;39667;52.274;20.964;2022-09-17T03:02:34;3.30;;;1.70;;
53753;SDS011;39667;52.274;20.964;2022-09-17T03:05:09;4.30;;;1.50;;
53753;SDS011;39667;52.274;20.964;2022-09-17T03:07:37;2.70;;;2.00;;
53753;SDS011;39667;52.274;20.964;2022-09-17T03:10:04;2.40;;;1.70;;
53753;SDS011;39667;52.274;20.964;2022-09-17T03:12:31;4.60;;;1.80;;
53753;SDS011;39667;52.274;20.964;2022-09-17T03:14:58;2.90;;;2.00;;
53753;SDS011;39667;52.274;20.964;2022-09-17T03:17:25;3.80;;;1.60;;
53753;SDS011;39667;52.274;20.964;2022-09-17T03:19:52;4.40;;;2.10;;
53753;SDS011;39667;52.274;20.964;2022-09-17T03:22:19;3.40;;;1.80;;
53753;SDS011;39667;52.274;20.964;2022-09-17T03:24:45;3.00;;;2.10;;
53753;SDS011;39667;52.274;20.964;2022-09-17T03:27:12;3.10;;;1.70;;
53753;SDS011;39667;52.274;20.964;2022-09-17T03:29:39;3.50;;;1.80;;
53753;SDS011;39667;52.274;20.964;2022-09-17T03:32:06;2.90;;;1.70;;
53753;SDS011;39667;52.274;20.964;2022-09-17T03:34:34;3.20;;;1.70;;
53753;SDS011;39667;52.274;20.964;2022-09-17T03:37:01;2.20;;;2.00;;
53753;SDS011;39667;52.274;20.964;2022-09-17T03:39:28;5.20;;;1.90;;
53753;SDS011;39667;52.274;20.964;2022-09-17T03:41:55;4.30;;;2.00;;
53753;SDS011;39667;52.274;20.964;2022-09-17T03:44:22;4.20;;;2.10;;
53753;SDS011;39667;52.274;20.964;2022-09-17T03:46:49;3.10;;;1.80;;
53753;SDS011;39667;52.274;20.964;2022-09-17T03:49:16;3.70;;;1.80;;
53753;SDS011;39667;52.274;20.964;2022-09-17T03:51:43;2.60;;;1.70;;
53753;SDS011;39667;52.274;20.964;2022-09-17T03:54:10;2.20;;;1.90;;
53753;SDS011;39667;52.274;20.964;2022-09-17T03:56:37;3.80;;;1.90;;
53753;SDS011;39667;52.274;20.964;2022-09-17T03:59:04;3.80;;;1.80;;
53753;SDS011;39667;52.274;20.964;2022-09-17T04:01:31;1.90;;;1.60;;
53753;SDS011;39667;52.274;20.964;2022-09-17T04:03:58;5.10;;;2.20;;
53753;SDS011;39667;52.274;20.964;2022-09-17T04:06:25;4.50;;;2.20;;
53753;SDS011;39667;52.274;20.964;2022-09-17T04:08:52;4.50;;;1.90;;
53753;SDS011;39667;52.274;20.964;2022-09-17T04:11:19;4.00;;;2.00;;
53753;SDS011;39667;52.274;20.964;2022-09-17T04:13:46;3.60;;;1.80;;
53753;SDS011;39667;52.274;20.964;2022-09-17T04:16:13;4.00;;;2.10;;
53753;SDS011;39667;52.274;20.964;2022-09-17T04:18:40;4.00;;;1.80;;
53753;SDS011;39667;52.274;20.964;2022-09-17T04:21:07;3.20;;;1.90;;
53753;SDS011;39667;52.274;20.964;2022-09-17T04:23:34;4.70;;;2.00;;
53753;SDS011;39667;52.274;20.964;2022-09-17T04:26:00;2.70;;;2.00;;
53753;SDS011;39667;52.274;20.964;2022-09-17T04:28:27;2.50;;;2.10;;
53753;SDS011;39667;52.274;20.964;2022-09-17T04:30:54;2.20;;;1.70;;
53753;SDS011;39667;52.274;20.964;2022-09-17T04:33:21;3.50;;;2.00;;
53753;SDS011;39667;52.274;20.964;2022-09-17T04:35:47;3.60;;;1.90;;
53753;SDS011;39667;52.274;20.964;2022-09-17T04:38:14;4.90;;;1.80;;
53753;SDS011;39667;52.274;20.964;2022-09-17T04:40:44;5.60;;;2.00;;
53753;SDS011;39667;52.274;20.964;2022-09-17T04:43:12;4.00;;;2.10;;
53753;SDS011;39667;52.274;20.964;2022-09-17T04:45:39;6.40;;;2.20;;
53753;SDS011;39667;52.274;20.964;2022-09-17T04:48:06;4.00;;;1.90;;
53753;SDS011;39667;52.274;20.964;2022-09-17T04:50:33;3.20;;;2.00;;
53753;SDS011;39667;52.274;20.964;2022-09-17T04:53:00;4.90;;;2.00;;
53753;SDS011;39667;52.274;20.964;2022-09-17T04:55:27;7.50;;;5.30;;
53753;SDS011;39667;52.274;20.964;2022-09-17T04:57:53;5.10;;;2.70;;
53753;SDS011;39667;52.274;20.964;2022-09-17T05:00:20;3.10;;;1.80;;
53753;SDS011;39667;52.274;20.964;2022-09-17T05:02:49;2.30;;;1.70;;
53753;SDS011;39667;52.274;20.964;2022-09-17T05:05:19;2.70;;;2.10;;
53753;SDS011;39667;52.274;20.964;2022-09-17T05:07:47;8.50;;;2.20;;
53753;SDS011;39667;52.274;20.964;2022-09-17T05:10:14;4.70;;;2.60;;
53753;SDS011;39667;52.274;20.964;2022-09-17T05:12:52;2.80;;;2.30;;
53753;SDS011;39667;52.274;20.964;2022-09-17T05:15:22;3.00;;;2.00;;
53753;SDS011;39667;52.274;20.964;2022-09-17T05:17:50;5.40;;;2.30;;
53753;SDS011;39667;52.274;20.964;2022-09-17T05:20:16;2.60;;;1.90;;
53753;SDS011;39667;52.274;20.964;2022-09-17T05:22:44;2.80;;;1.90;;
53753;SDS011;39667;52.274;20.964;2022-09-17T05:25:16;4.40;;;2.20;;
53753;SDS011;39667;52.274;20.964;2022-09-17T05:27:44;2.60;;;2.10;;
53753;SDS011;39667;52.274;20.964;2022-09-17T05:30:11;3.10;;;2.10;;
53753;SDS011;39667;52.274;20.964;2022-09-17T05:32:38;3.20;;;2.60;;
53753;SDS011;39667;52.274;20.964;2022-09-17T05:35:06;2.70;;;1.90;;
53753;SDS011;39667;52.274;20.964;2022-09-17T05:37:33;2.40;;;1.80;;
53753;SDS011;39667;52.274;20.964;2022-09-17T05:40:01;2.10;;;1.90;;
53753;SDS011;39667;52.274;20.964;2022-09-17T05:42:31;4.20;;;2.20;;
53753;SDS011;39667;52.274;20.964;2022-09-17T05:44:58;3.70;;;1.80;;
53753;SDS011;39667;52.274;20.964;2022-09-17T05:47:24;5.20;;;2.00;;
53753;SDS011;39667;52.274;20.964;2022-09-17T05:49:51;6.10;;;2.10;;
53753;SDS011;39667;52.274;20.964;2022-09-17T05:52:18;2.80;;;2.10;;
53753;SDS011;39667;52.274;20.964;2022-09-17T05:54:45;4.70;;;2.40;;
53753;SDS011;39667;52.274;20.964;2022-09-17T05:57:12;2.60;;;1.70;;
53753;SDS011;39667;52.274;20.964;2022-09-17T05:59:39;3.50;;;1.70;;
53753;SDS011;39667;52.274;20.964;2022-09-17T06:02:05;3.50;;;1.90;;
53753;SDS011;39667;52.274;20.964;2022-09-17T06:04:32;3.80;;;1.80;;
53753;SDS011;39667;52.274;20.964;2022-09-17T06:07:03;4.40;;;2.10;;
53753;SDS011;39667;52.274;20.964;2022-09-17T06:09:35;3.00;;;1.90;;
53753;SDS011;39667;52.274;20.964;2022-09-17T06:12:03;3.00;;;2.10;;
53753;SDS011;39667;52.274;20.964;2022-09-17T06:14:31;2.70;;;1.70;;
53753;SDS011;39667;52.274;20.964;2022-09-17T06:16:57;3.70;;;2.10;;
53753;SDS011;39667;52.274;20.964;2022-09-17T06:19:26;4.20;;;2.20;;
53753;SDS011;39667;52.274;20.964;2022-09-17T06:21:53;3.70;;;1.80;;
53753;SDS011;39667;52.274;20.964;2022-09-17T06:24:20;3.70;;;1.80;;
53753;SDS011;39667;52.274;20.964;2022-09-17T06:26:47;5.00;;;1.70;;
53753;SDS011;39667;52.274;20.964;2022-09-17T06:29:14;3.80;;;2.00;;
53753;SDS011;39667;52.274;20.964;2022-09-17T06:31:41;2.50;;;1.60;;
53753;SDS011;39667;52.274;20.964;2022-09-17T06:34:10;4.00;;;1.70;;
53753;SDS011;39667;52.274;20.964;2022-09-17T06:36:37;2.40;;;1.30;;
53753;SDS011;39667;52.274;20.964;2022-09-17T06:39:05;5.00;;;1.60;;
53753;SDS011;39667;52.274;20.964;2022-09-17T06:41:32;3.30;;;1.60;;
53753;SDS011;39667;52.274;20.964;2022-09-17T06:43:59;4.30;;;2.60;;
53753;SDS011;39667;52.274;20.964;2022-09-17T06:46:27;6.70;;;2.00;;
53753;SDS011;39667;52.274;20.964;2022-09-17T06:48:54;3.40;;;1.50;;
53753;SDS011;39667;52.274;20.964;2022-09-17T06:51:21;6.50;;;2.20;;
53753;SDS011;39667;52.274;20.964;2022-09-17T06:53:48;2.90;;;1.70;;
53753;SDS011;39667;52.274;20.964;2022-09-17T06:56:15;3.90;;;1.40;;
53753;SDS011;39667;52.274;20.964;2022-09-17T06:58:43;4.00;;;1.70;;
53753;SDS011;39667;52.274;20.964;2022-09-17T07:01:10;3.90;;;1.80;;
53753;SDS011;39667;52.274;20.964;2022-09-17T07:03:38;5.20;;;1.70;;
53753;SDS011;39667;52.274;20.964;2022-09-17T07:06:09;3.80;;;2.00;;
53753;SDS011;39667;52.274;20.964;2022-09-17T07:08:36;6.40;;;2.10;;
53753;SDS011;39667;52.274;20.964;2022-09-17T07:11:05;4.30;;;1.80;;
53753;SDS011;39667;52.274;20.964;2022-09-17T07:13:32;5.50;;;1.90;;
53753;SDS011;39667;52.274;20.964;2022-09-17T07:16:00;4.60;;;1.80;;
53753;SDS011;39667;52.274;20.964;2022-09-17T07:18:28;2.80;;;1.80;;
53753;SDS011;39667;52.274;20.964;2022-09-17T07:20:56;2.50;;;1.80;;
53753;SDS011;39667;52.274;20.964;2022-09-17T07:23:28;3.40;;;1.80;;
53753;SDS011;39667;52.274;20.964;2022-09-17T07:25:58;4.10;;;1.90;;
53753;SDS011;39667;52.274;20.964;2022-09-17T07:28:26;3.60;;;2.10;;
53753;SDS011;39667;52.274;20.964;2022-09-17T07:30:54;4.60;;;2.00;;
53753;SDS011;39667;52.274;20.964;2022-09-17T07:33:23;2.70;;;2.40;;
53753;SDS011;39667;52.274;20.964;2022-09-17T07:35:53;3.20;;;2.10;;
53753;SDS011;39667;52.274;20.964;2022-09-17T07:38:20;5.80;;;2.50;;
53753;SDS011;39667;52.274;20.964;2022-09-17T07:40:52;3.70;;;2.00;;
53753;SDS011;39667;52.274;20.964;2022-09-17T07:43:27;5.20;;;2.00;;
53753;SDS011;39667;52.274;20.964;2022-09-17T07:46:00;2.60;;;2.00;;
53753;SDS011;39667;52.274;20.964;2022-09-17T07:48:28;5.90;;;2.00;;
53753;SDS011;39667;52.274;20.964;2022-09-17T07:50:56;4.70;;;2.10;;
53753;SDS011;39667;52.274;20.964;2022-09-17T07:53:23;2.10;;;1.90;;
53753;SDS011;39667;52.274;20.964;2022-09-17T07:55:51;5.10;;;2.10;;
53753;SDS011;39667;52.274;20.964;2022-09-17T07:58:20;5.70;;;2.20;;
53753;SDS011;39667;52.274;20.964;2022-09-17T08:00:48;2.10;;;1.80;;
53753;SDS011;39667;52.274;20.964;2022-09-17T08:03:15;3.90;;;2.20;;
53753;SDS011;39667;52.274;20.964;2022-09-17T08:05:42;3.50;;;2.10;;
53753;SDS011;39667;52.274;20.964;2022-09-17T08:08:09;4.50;;;1.90;;
53753;SDS011;39667;52.274;20.964;2022-09-17T08:10:36;3.40;;;1.70;;
53753;SDS011;39667;52.274;20.964;2022-09-17T08:13:02;4.50;;;2.40;;
53753;SDS011;39667;52.274;20.964;2022-09-17T08:15:29;3.10;;;1.90;;
53753;SDS011;39667;52.274;20.964;2022-09-17T08:17:56;2.80;;;1.90;;
53753;SDS011;39667;52.274;20.964;2022-09-17T08:20:23;3.60;;;2.30;;
53753;SDS011;39667;52.274;20.964;2022-09-17T08:22:58;6.90;;;2.40;;
53753;SDS011;39667;52.274;20.964;2022-09-17T08:25:26;3.30;;;2.10;;
53753;SDS011;39667;52.274;20.964;2022-09-17T08:27:56;2.60;;;2.00;;
53753;SDS011;39667;52.274;20.964;2022-09-17T08:30:22;2.60;;;1.90;;
53753;SDS011;39667;52.274;20.964;2022-09-17T08:32:49;5.70;;;2.10;;
53753;SDS011;39667;52.274;20.964;2022-09-17T08:35:16;2.50;;;2.00;;
53753;SDS011;39667;52.274;20.964;2022-09-17T08:37:43;3.70;;;2.10;;
53753;SDS011;39667;52.274;20.964;2022-09-17T08:40:15;5.20;;;2.10;;
53753;SDS011;39667;52.274;20.964;2022-09-17T08:45:28;6.00;;;1.60;;
53753;SDS011;39667;52.274;20.964;2022-09-17T08:47:59;1.80;;;1.60;;
53753;SDS011;39667;52.274;20.964;2022-09-17T08:50:31;4.20;;;2.10;;
53753;SDS011;39667;52.274;20.964;2022-09-17T08:58:54;2.50;;;1.50;;
53753;SDS011;39667;52.274;20.964;2022-09-17T09:01:39;2.80;;;1.50;;
53753;SDS011;39667;52.274;20.964;2022-09-17T09:06:53;1.80;;;1.40;;
53753;SDS011;39667;52.274;20.964;2022-09-17T09:09:27;3.00;;;1.60;;
53753;SDS011;39667;52.274;20.964;2022-09-17T09:12:10;3.90;;;1.90;;
53753;SDS011;39667;52.274;20.964;2022-09-17T09:14:51;2.60;;;1.50;;
53753;SDS011;39667;52.274;20.964;2022-09-17T09:17:24;4.00;;;1.30;;
53753;SDS011;39667;52.274;20.964;2022-09-17T09:19:58;3.60;;;1.10;;
53753;SDS011;39667;52.274;20.964;2022-09-17T09:22:30;2.50;;;1.40;;
53753;SDS011;39667;52.274;20.964;2022-09-17T09:33:30;1.80;;;1.40;;
53753;SDS011;39667;52.274;20.964;2022-09-17T09:35:58;1.20;;;1.10;;
53753;SDS011;39667;52.274;20.964;2022-09-17T09:38:30;2.00;;;1.40;;
53753;SDS011;39667;52.274;20.964;2022-09-17T09:43:37;2.00;;;1.30;;
53753;SDS011;39667;52.274;20.964;2022-09-17T09:57:48;1.70;;;1.10;;
53753;SDS011;39667;52.274;20.964;2022-09-17T10:00:51;2.30;;;1.50;;
53753;SDS011;39667;52.274;20.964;2022-09-17T10:03:21;1.70;;;1.10;;
53753;SDS011;39667;52.274;20.964;2022-09-17T10:06:05;0.90;;;0.90;;
53753;SDS011;39667;52.274;20.964;2022-09-17T10:08:36;2.80;;;1.30;;
53753;SDS011;39667;52.274;20.964;2022-09-17T10:11:27;2.60;;;1.50;;
53753;SDS011;39667;52.274;20.964;2022-09-17T10:22:25;2.40;;;2.00;;
53753;SDS011;39667;52.274;20.964;2022-09-17T10:27:55;2.20;;;1.60;;
53753;SDS011;39667;52.274;20.964;2022-09-17T10:30:24;2.90;;;1.30;;
53753;SDS011;39667;52.274;20.964;2022-09-17T10:36:01;3.10;;;1.20;;
53753;SDS011;39667;52.274;20.964;2022-09-17T10:38:33;1.60;;;1.10;;
53753;SDS011;39667;52.274;20.964;2022-09-17T10:41:10;1.40;;;1.30;;
53753;SDS011;39667;52.274;20.964;2022-09-17T10:43:38;2.80;;;1.10;;
53753;SDS011;39667;52.274;20.964;2022-09-17T10:46:07;1.10;;;1.00;;
53753;SDS011;39667;52.274;20.964;2022-09-17T10:48:38;1.40;;;0.90;;
53753;SDS011;39667;52.274;20.964;2022-09-17T10:51:35;1.20;;;1.10;;
53753;SDS011;39667;52.274;20.964;2022-09-17T10:57:06;0.80;;;0.80;;
53753;SDS011;39667;52.274;20.964;2022-09-17T10:59:48;0.90;;;0.80;;
53753;SDS011;39667;52.274;20.964;2022-09-17T11:13:24;1.60;;;0.90;;
53753;SDS011;39667;52.274;20.964;2022-09-17T11:16:05;1.80;;;0.90;;
53753;SDS011;39667;52.274;20.964;2022-09-17T11:21:42;1.40;;;0.90;;
53753;SDS011;39667;52.274;20.964;2022-09-17T11:24:29;0.90;;;0.90;;
53753;SDS011;39667;52.274;20.964;2022-09-17T11:30:18;1.90;;;1.40;;
53753;SDS011;39667;52.274;20.964;2022-09-17T11:32:59;0.90;;;0.90;;
53753;SDS011;39667;52.274;20.964;2022-09-17T11:35:49;1.50;;;1.00;;
53753;SDS011;39667;52.274;20.964;2022-09-17T11:38:29;1.20;;;1.10;;
53753;SDS011;39667;52.274;20.964;2022-09-17T11:41:15;0.80;;;0.80;;
53753;SDS011;39667;52.274;20.964;2022-09-17T11:44:02;1.30;;;0.90;;
53753;SDS011;39667;52.274;20.964;2022-09-17T11:46:44;0.90;;;0.90;;
53753;SDS011;39667;52.274;20.964;2022-09-17T11:49:23;1.50;;;1.10;;
53753;SDS011;39667;52.274;20.964;2022-09-17T11:51:56;1.20;;;1.10;;
53753;SDS011;39667;52.274;20.964;2022-09-17T11:54:36;3.10;;;1.20;;
53753;SDS011;39667;52.274;20.964;2022-09-17T11:57:25;1.70;;;1.20;;
53753;SDS011;39667;52.274;20.964;2022-09-17T12:00:00;1.10;;;1.00;;
53753;SDS011;39667;52.274;20.964;2022-09-17T12:05:26;1.90;;;1.20;;
53753;SDS011;39667;52.274;20.964;2022-09-17T12:08:03;1.10;;;1.00;;
53753;SDS011;39667;52.274;20.964;2022-09-17T12:10:51;1.10;;;1.00;;
53753;SDS011;39667;52.274;20.964;2022-09-17T12:16:40;1.40;;;1.00;;
53753;SDS011;39667;52.274;20.964;2022-09-17T12:19:16;1.50;;;1.00;;
53753;SDS011;39667;52.274;20.964;2022-09-17T12:22:07;1.80;;;1.20;;
53753;SDS011;39667;52.274;20.964;2022-09-17T12:24:43;1.30;;;1.10;;
53753;SDS011;39667;52.274;20.964;2022-09-17T12:41:32;1.60;;;1.50;;
53753;SDS011;39667;52.274;20.964;2022-09-17T13:01:19;1.70;;;1.60;;
53753;SDS011;39667;52.274;20.964;2022-09-17T13:03:52;2.70;;;1.80;;
53753;SDS011;39667;52.274;20.964;2022-09-17T13:22:50;2.80;;;1.80;;
53753;SDS011;39667;52.274;20.964;2022-09-17T13:25:20;1.70;;;1.50;;
53753;SDS011;39667;52.274;20.964;2022-09-17T13:27:48;1.30;;;1.20;;
53753;SDS011;39667;52.274;20.964;2022-09-17T13:30:17;2.10;;;1.10;;
53753;SDS011;39667;52.274;20.964;2022-09-17T13:32:50;2.80;;;1.50;;
53753;SDS011;39667;52.274;20.964;2022-09-17T13:40:24;3.40;;;1.50;;
53753;SDS011;39667;52.274;20.964;2022-09-17T13:42:52;1.70;;;1.60;;
53753;SDS011;39667;52.274;20.964;2022-09-17T13:45:22;2.70;;;1.30;;
53753;SDS011;39667;52.274;20.964;2022-09-17T13:50:39;1.90;;;1.30;;
53753;SDS011;39667;52.274;20.964;2022-09-17T13:55:47;1.60;;;1.40;;
53753;SDS011;39667;52.274;20.964;2022-09-17T14:05:57;2.70;;;1.70;;
53753;SDS011;39667;52.274;20.964;2022-09-17T14:13:47;1.60;;;1.50;;
53753;SDS011;39667;52.274;20.964;2022-09-17T14:22:22;1.70;;;1.50;;
53753;SDS011;39667;52.274;20.964;2022-09-17T14:24:52;1.60;;;1.50;;
53753;SDS011;39667;52.274;20.964;2022-09-17T14:30:20;2.10;;;1.90;;
53753;SDS011;39667;52.274;20.964;2022-09-17T14:35:37;2.90;;;1.70;;
53753;SDS011;39667;52.274;20.964;2022-09-17T14:40:58;1.80;;;1.60;;
53753;SDS011;39667;52.274;20.964;2022-09-17T14:46:01;3.90;;;1.70;;
53753;SDS011;39667;52.274;20.964;2022-09-17T14:48:34;5.30;;;1.90;;
53753;SDS011;39667;52.274;20.964;2022-09-17T14:53:44;2.00;;;1.90;;
53753;SDS011;39667;52.274;20.964;2022-09-17T14:56:13;3.90;;;2.20;;
53753;SDS011;39667;52.274;20.964;2022-09-17T14:58:49;2.40;;;2.30;;
53753;SDS011;39667;52.274;20.964;2022-09-17T15:01:21;2.80;;;2.60;;
53753;SDS011;39667;52.274;20.964;2022-09-17T15:06:45;3.40;;;2.30;;
53753;SDS011;39667;52.274;20.964;2022-09-17T15:09:22;2.70;;;2.20;;
53753;SDS011;39667;52.274;20.964;2022-09-17T15:11:54;2.40;;;2.20;;
53753;SDS011;39667;52.274;20.964;2022-09-17T15:14:26;3.70;;;2.70;;
53753;SDS011;39667;52.274;20.964;2022-09-17T15:16:55;2.60;;;2.40;;
53753;SDS011;39667;52.274;20.964;2022-09-17T15:19:38;2.80;;;2.60;;
53753;SDS011;39667;52.274;20.964;2022-09-17T15:22:18;3.50;;;3.20;;
53753;SDS011;39667;52.274;20.964;2022-09-17T15:24:55;4.40;;;3.10;;
53753;SDS011;39667;52.274;20.964;2022-09-17T15:27:29;3.80;;;2.90;;
53753;SDS011;39667;52.274;20.964;2022-09-17T15:30:03;3.50;;;2.20;;
53753;SDS011;39667;52.274;20.964;2022-09-17T15:32:35;3.40;;;2.60;;
53753;SDS011;39667;52.274;20.964;2022-09-17T15:37:42;5.10;;;2.70;;
53753;SDS011;39667;52.274;20.964;2022-09-17T15:40:27;2.50;;;2.30;;
53753;SDS011;39667;52.274;20.964;2022-09-17T15:45:53;3.80;;;2.40;;
53753;SDS011;39667;52.274;20.964;2022-09-17T15:50:54;3.00;;;2.70;;
53753;SDS011;39667;52.274;20.964;2022-09-17T15:53:29;3.20;;;2.90;;
53753;SDS011;39667;52.274;20.964;2022-09-17T15:58:28;2.90;;;2.60;;
53753;SDS011;39667;52.274;20.964;2022-09-17T16:01:32;4.50;;;3.30;;
53753;SDS011;39667;52.274;20.964;2022-09-17T16:08:57;5.40;;;3.40;;
53753;SDS011;39667;52.274;20.964;2022-09-17T16:11:27;4.00;;;3.50;;
53753;SDS011;39667;52.274;20.964;2022-09-17T16:13:57;4.50;;;3.20;;
53753;SDS011;39667;52.274;20.964;2022-09-17T16:16:28;3.50;;;3.20;;
53753;SDS011;39667;52.274;20.964;2022-09-17T16:18:59;4.30;;;2.90;;
53753;SDS011;39667;52.274;20.964;2022-09-17T16:21:26;3.90;;;3.40;;
53753;SDS011;39667;52.274;20.964;2022-09-17T16:23:54;5.80;;;3.80;;
53753;SDS011;39667;52.274;20.964;2022-09-17T16:26:24;3.90;;;3.60;;
53753;SDS011;39667;52.274;20.964;2022-09-17T16:28:58;3.40;;;3.10;;
53753;SDS011;39667;52.274;20.964;2022-09-17T16:31:46;7.00;;;3.70;;
53753;SDS011;39667;52.274;20.964;2022-09-17T16:34:16;3.90;;;3.50;;
53753;SDS011;39667;52.274;20.964;2022-09-17T16:36:43;5.00;;;3.80;;
53753;SDS011;39667;52.274;20.964;2022-09-17T16:39:10;5.40;;;3.80;;
53753;SDS011;39667;52.274;20.964;2022-09-17T16:41:36;5.60;;;3.80;;
53753;SDS011;39667;52.274;20.964;2022-09-17T16:44:03;4.60;;;4.10;;
53753;SDS011;39667;52.274;20.964;2022-09-17T16:46:30;5.50;;;4.30;;
53753;SDS011;39667;52.274;20.964;2022-09-17T16:48:57;4.80;;;3.40;;
53753;SDS011;39667;52.274;20.964;2022-09-17T16:51:26;4.20;;;3.70;;
53753;SDS011;39667;52.274;20.964;2022-09-17T16:53:52;4.80;;;4.20;;
53753;SDS011;39667;52.274;20.964;2022-09-17T16:56:19;5.00;;;4.30;;
53753;SDS011;39667;52.274;20.964;2022-09-17T16:58:46;6.10;;;4.60;;
53753;SDS011;39667;52.274;20.964;2022-09-17T17:01:14;8.10;;;4.70;;
53753;SDS011;39667;52.274;20.964;2022-09-17T17:03:41;5.20;;;4.60;;
53753;SDS011;39667;52.274;20.964;2022-09-17T17:06:14;7.40;;;4.90;;
53753;SDS011;39667;52.274;20.964;2022-09-17T17:08:42;6.00;;;4.90;;
53753;SDS011;39667;52.274;20.964;2022-09-17T17:11:08;5.40;;;4.60;;
53753;SDS011;39667;52.274;20.964;2022-09-17T17:13:35;10.40;;;4.80;;
53753;SDS011;39667;52.274;20.964;2022-09-17T17:16:09;6.00;;;4.80;;
53753;SDS011;39667;52.274;20.964;2022-09-17T17:18:40;5.90;;;5.10;;
53753;SDS011;39667;52.274;20.964;2022-09-17T17:21:10;7.30;;;5.40;;
53753;SDS011;39667;52.274;20.964;2022-09-17T17:23:38;7.10;;;5.90;;
53753;SDS011;39667;52.274;20.964;2022-09-17T17:26:05;5.80;;;5.20;;
53753;SDS011;39667;52.274;20.964;2022-09-17T17:28:32;6.90;;;6.00;;
53753;SDS011;39667;52.274;20.964;2022-09-17T17:31:02;7.90;;;5.50;;
53753;SDS011;39667;52.274;20.964;2022-09-17T17:33:30;6.10;;;5.30;;
53753;SDS011;39667;52.274;20.964;2022-09-17T17:36:00;5.80;;;5.20;;
53753;SDS011;39667;52.274;20.964;2022-09-17T17:38:33;6.80;;;6.00;;
53753;SDS011;39667;52.274;20.964;2022-09-17T17:41:05;5.70;;;5.20;;
53753;SDS011;39667;52.274;20.964;2022-09-17T17:43:37;6.60;;;6.00;;
53753;SDS011;39667;52.274;20.964;2022-09-17T17:46:05;5.90;;;5.30;;
53753;SDS011;39667;52.274;20.964;2022-09-17T17:48:36;6.40;;;4.90;;
53753;SDS011;39667;52.274;20.964;2022-09-17T17:51:05;6.40;;;5.00;;
53753;SDS011;39667;52.274;20.964;2022-09-17T17:53:34;6.10;;;5.50;;
53753;SDS011;39667;52.274;20.964;2022-09-17T17:56:03;6.20;;;5.40;;
53753;SDS011;39667;52.274;20.964;2022-09-17T17:58:32;7.40;;;6.00;;
53753;SDS011;39667;52.274;20.964;2022-09-17T18:01:07;5.90;;;5.30;;
53753;SDS011;39667;52.274;20.964;2022-09-17T18:03:46;5.80;;;5.20;;
53753;SDS011;39667;52.274;20.964;2022-09-17T18:06:13;5.90;;;4.90;;
53753;SDS011;39667;52.274;20.964;2022-09-17T18:08:41;5.50;;;4.70;;
53753;SDS011;39667;52.274;20.964;2022-09-17T18:11:10;5.90;;;5.30;;
53753;SDS011;39667;52.274;20.964;2022-09-17T18:13:37;8.80;;;6.10;;
53753;SDS011;39667;52.274;20.964;2022-09-17T18:16:05;6.10;;;5.10;;
53753;SDS011;39667;52.274;20.964;2022-09-17T18:18:38;8.40;;;6.60;;
53753;SDS011;39667;52.274;20.964;2022-09-17T18:21:20;8.60;;;6.60;;
53753;SDS011;39667;52.274;20.964;2022-09-17T18:23:48;7.80;;;6.80;;
53753;SDS011;39667;52.274;20.964;2022-09-17T18:26:17;8.30;;;7.10;;
53753;SDS011;39667;52.274;20.964;2022-09-17T18:28:49;10.70;;;7.30;;
53753;SDS011;39667;52.274;20.964;2022-09-17T18:31:27;8.80;;;7.90;;
53753;SDS011;39667;52.274;20.964;2022-09-17T18:34:00;9.40;;;8.10;;
53753;SDS011;39667;52.274;20.964;2022-09-17T18:36:30;12.40;;;8.50;;
53753;SDS011;39667;52.274;20.964;2022-09-17T18:38:59;9.00;;;8.10;;
53753;SDS011;39667;52.274;20.964;2022-09-17T18:41:48;10.80;;;9.60;;
53753;SDS011;39667;52.274;20.964;2022-09-17T18:44:14;9.70;;;8.70;;
53753;SDS011;39667;52.274;20.964;2022-09-17T18:46:44;10.20;;;9.20;;